sensor_id;sensor_type;location;lat;lon;timestamp;temperature;humidity
23869;DHT22;12115;47.128;15.422;2024-02-26T00:01:05;3.20;99.90
23869;DHT22;12115;47.128;15.422;2024-02-26T00:03:32;3.10;99.90
23869;DHT22;12115;47.128;15.422;2024-02-26T00:06:02;3.10;99.90
23869;DHT22;12115;47.128;15.422;2024-02-26T00:08:30;3.00;99.90
23869;DHT22;12115;47.128;15.422;2024-02-26T00:10:57;3.00;99.90
23869;DHT22;12115;47.128;15.422;2024-02-26T00:13:24;2.90;99.90
23869;DHT22;12115;47.128;15.422;2024-02-26T00:15:51;3.00;99.90
23869;DHT22;12115;47.128;15.422;2024-02-26T00:18:18;2.90;99.90
23869;DHT22;12115;47.128;15.422;2024-02-26T00:20:46;2.90;99.90
23869;DHT22;12115;47.128;15.422;2024-02-26T00:23:15;2.90;99.90
23869;DHT22;12115;47.128;15.422;2024-02-26T00:25:42;2.90;99.90
23869;DHT22;12115;47.128;15.422;2024-02-26T00:28:10;2.80;99.90
23869;DHT22;12115;47.128;15.422;2024-02-26T00:30:37;2.70;99.90
23869;DHT22;12115;47.128;15.422;2024-02-26T00:33:04;2.70;99.90
23869;DHT22;12115;47.128;15.422;2024-02-26T00:35:32;2.70;99.90
23869;DHT22;12115;47.128;15.422;2024-02-26T00:37:59;2.70;99.90
23869;DHT22;12115;47.128;15.422;2024-02-26T00:40:27;2.60;99.90
23869;DHT22;12115;47.128;15.422;2024-02-26T00:42:56;2.70;99.90
23869;DHT22;12115;47.128;15.422;2024-02-26T00:45:24;2.70;99.90
23869;DHT22;12115;47.128;15.422;2024-02-26T00:47:51;2.60;99.90
23869;DHT22;12115;47.128;15.422;2024-02-26T00:50:18;2.50;99.90
23869;DHT22;12115;47.128;15.422;2024-02-26T00:52:45;2.50;99.90
23869;DHT22;12115;47.128;15.422;2024-02-26T00:55:13;2.50;99.90
23869;DHT22;12115;47.128;15.422;2024-02-26T00:57:40;2.60;99.90
23869;DHT22;12115;47.128;15.422;2024-02-26T01:00:08;2.60;99.90
23869;DHT22;12115;47.128;15.422;2024-02-26T01:02:36;2.50;99.90
23869;DHT22;12115;47.128;15.422;2024-02-26T01:05:03;2.40;99.90
23869;DHT22;12115;47.128;15.422;2024-02-26T01:07:30;2.40;99.90
23869;DHT22;12115;47.128;15.422;2024-02-26T01:10:03;2.20;99.90
23869;DHT22;12115;47.128;15.422;2024-02-26T01:12:30;2.30;99.90
23869;DHT22;12115;47.128;15.422;2024-02-26T01:14:57;2.30;99.90
23869;DHT22;12115;47.128;15.422;2024-02-26T01:17:25;2.30;99.90
23869;DHT22;12115;47.128;15.422;2024-02-26T01:19:52;2.40;99.90
23869;DHT22;12115;47.128;15.422;2024-02-26T01:22:20;2.40;99.90
23869;DHT22;12115;47.128;15.422;2024-02-26T01:24:48;2.40;99.90
23869;DHT22;12115;47.128;15.422;2024-02-26T01:27:15;2.40;99.90
23869;DHT22;12115;47.128;15.422;2024-02-26T01:29:45;2.20;99.90
23869;DHT22;12115;47.128;15.422;2024-02-26T01:32:12;2.10;99.90
23869;DHT22;12115;47.128;15.422;2024-02-26T01:34:39;2.10;99.90
23869;DHT22;12115;47.128;15.422;2024-02-26T01:37:07;2.10;99.90
23869;DHT22;12115;47.128;15.422;2024-02-26T01:39:34;2.20;99.90
23869;DHT22;12115;47.128;15.422;2024-02-26T01:42:04;2.20;99.90
23869;DHT22;12115;47.128;15.422;2024-02-26T01:44:33;2.10;99.90
23869;DHT22;12115;47.128;15.422;2024-02-26T01:47:00;2.20;99.90
23869;DHT22;12115;47.128;15.422;2024-02-26T01:49:28;2.10;99.90
23869;DHT22;12115;47.128;15.422;2024-02-26T01:51:57;2.10;99.90
23869;DHT22;12115;47.128;15.422;2024-02-26T01:54:25;2.10;99.90
23869;DHT22;12115;47.128;15.422;2024-02-26T01:56:53;2.00;99.90
23869;DHT22;12115;47.128;15.422;2024-02-26T01:59:21;2.00;99.90
23869;DHT22;12115;47.128;15.422;2024-02-26T02:01:52;2.00;99.90
23869;DHT22;12115;47.128;15.422;2024-02-26T02:04:22;2.00;99.90
23869;DHT22;12115;47.128;15.422;2024-02-26T02:06:51;2.10;99.90
23869;DHT22;12115;47.128;15.422;2024-02-26T02:09:19;2.10;99.90
23869;DHT22;12115;47.128;15.422;2024-02-26T02:11:47;2.00;99.90
23869;DHT22;12115;47.128;15.422;2024-02-26T02:14:15;2.00;99.90
23869;DHT22;12115;47.128;15.422;2024-02-26T02:16:42;1.90;99.90
23869;DHT22;12115;47.128;15.422;2024-02-26T02:19:09;1.90;99.90
23869;DHT22;12115;47.128;15.422;2024-02-26T02:21:36;1.90;99.90
23869;DHT22;12115;47.128;15.422;2024-02-26T02:24:03;1.90;99.90
23869;DHT22;12115;47.128;15.422;2024-02-26T02:26:31;1.90;99.90
23869;DHT22;12115;47.128;15.422;2024-02-26T02:28:59;1.90;99.90
23869;DHT22;12115;47.128;15.422;2024-02-26T02:31:27;1.90;99.90
23869;DHT22;12115;47.128;15.422;2024-02-26T02:33:54;1.90;99.90
23869;DHT22;12115;47.128;15.422;2024-02-26T02:36:21;1.90;99.90
23869;DHT22;12115;47.128;15.422;2024-02-26T02:38:49;1.80;99.90
23869;DHT22;12115;47.128;15.422;2024-02-26T02:41:17;1.90;99.90
23869;DHT22;12115;47.128;15.422;2024-02-26T02:43:45;1.80;99.90
23869;DHT22;12115;47.128;15.422;2024-02-26T02:46:12;1.80;99.90
23869;DHT22;12115;47.128;15.422;2024-02-26T02:48:39;1.80;99.90
23869;DHT22;12115;47.128;15.422;2024-02-26T02:51:09;1.80;99.90
23869;DHT22;12115;47.128;15.422;2024-02-26T02:53:36;1.70;99.90
23869;DHT22;12115;47.128;15.422;2024-02-26T02:56:03;1.70;99.90
23869;DHT22;12115;47.128;15.422;2024-02-26T02:58:30;1.70;99.90
23869;DHT22;12115;47.128;15.422;2024-02-26T03:00:57;1.70;99.90
23869;DHT22;12115;47.128;15.422;2024-02-26T03:03:27;1.60;99.90
23869;DHT22;12115;47.128;15.422;2024-02-26T03:05:55;1.60;99.90
23869;DHT22;12115;47.128;15.422;2024-02-26T03:08:24;1.60;99.90
23869;DHT22;12115;47.128;15.422;2024-02-26T03:10:52;1.50;99.90
23869;DHT22;12115;47.128;15.422;2024-02-26T03:13:20;1.60;99.90
23869;DHT22;12115;47.128;15.422;2024-02-26T03:15:47;1.50;99.90
23869;DHT22;12115;47.128;15.422;2024-02-26T03:18:14;1.50;99.90
23869;DHT22;12115;47.128;15.422;2024-02-26T03:20:42;1.60;99.90
23869;DHT22;12115;47.128;15.422;2024-02-26T03:23:09;1.60;99.90
23869;DHT22;12115;47.128;15.422;2024-02-26T03:25:39;1.60;99.90
23869;DHT22;12115;47.128;15.422;2024-02-26T03:28:06;1.60;99.90
23869;DHT22;12115;47.128;15.422;2024-02-26T03:30:34;1.50;99.90
23869;DHT22;12115;47.128;15.422;2024-02-26T03:33:01;1.50;99.90
23869;DHT22;12115;47.128;15.422;2024-02-26T03:35:29;1.40;99.90
23869;DHT22;12115;47.128;15.422;2024-02-26T03:37:56;1.40;99.90
23869;DHT22;12115;47.128;15.422;2024-02-26T03:40:23;1.30;99.90
23869;DHT22;12115;47.128;15.422;2024-02-26T03:42:51;1.40;99.90
23869;DHT22;12115;47.128;15.422;2024-02-26T03:45:20;1.40;99.90
23869;DHT22;12115;47.128;15.422;2024-02-26T03:47:47;1.30;99.90
23869;DHT22;12115;47.128;15.422;2024-02-26T03:50:15;1.30;99.90
23869;DHT22;12115;47.128;15.422;2024-02-26T03:52:43;1.30;99.90
23869;DHT22;12115;47.128;15.422;2024-02-26T03:55:10;1.30;99.90
23869;DHT22;12115;47.128;15.422;2024-02-26T03:57:37;1.30;99.90
23869;DHT22;12115;47.128;15.422;2024-02-26T04:00:04;1.20;99.90
23869;DHT22;12115;47.128;15.422;2024-02-26T04:02:36;1.20;99.90
23869;DHT22;12115;47.128;15.422;2024-02-26T04:05:03;1.10;99.90
23869;DHT22;12115;47.128;15.422;2024-02-26T04:07:31;1.10;99.90
23869;DHT22;12115;47.128;15.422;2024-02-26T04:09:58;1.20;99.90
23869;DHT22;12115;47.128;15.422;2024-02-26T04:12:25;1.10;99.90
23869;DHT22;12115;47.128;15.422;2024-02-26T04:14:52;1.00;99.90
23869;DHT22;12115;47.128;15.422;2024-02-26T04:17:19;1.00;99.90
23869;DHT22;12115;47.128;15.422;2024-02-26T04:19:46;1.00;99.90
23869;DHT22;12115;47.128;15.422;2024-02-26T04:22:13;1.00;99.90
23869;DHT22;12115;47.128;15.422;2024-02-26T04:24:40;1.00;99.90
23869;DHT22;12115;47.128;15.422;2024-02-26T04:27:07;1.00;99.90
23869;DHT22;12115;47.128;15.422;2024-02-26T04:29:34;1.00;99.90
23869;DHT22;12115;47.128;15.422;2024-02-26T04:32:02;1.00;99.90
23869;DHT22;12115;47.128;15.422;2024-02-26T04:34:29;0.90;99.90
23869;DHT22;12115;47.128;15.422;2024-02-26T04:36:56;0.90;99.90
23869;DHT22;12115;47.128;15.422;2024-02-26T04:39:29;0.80;99.90
23869;DHT22;12115;47.128;15.422;2024-02-26T04:41:56;0.90;99.90
23869;DHT22;12115;47.128;15.422;2024-02-26T04:44:24;0.80;99.90
23869;DHT22;12115;47.128;15.422;2024-02-26T04:46:51;0.80;99.90
23869;DHT22;12115;47.128;15.422;2024-02-26T04:49:18;0.90;99.90
23869;DHT22;12115;47.128;15.422;2024-02-26T04:51:45;0.90;99.90
23869;DHT22;12115;47.128;15.422;2024-02-26T04:54:12;0.80;99.90
23869;DHT22;12115;47.128;15.422;2024-02-26T04:56:39;0.80;99.90
23869;DHT22;12115;47.128;15.422;2024-02-26T04:59:06;0.70;99.90
23869;DHT22;12115;47.128;15.422;2024-02-26T05:01:33;0.70;99.90
23869;DHT22;12115;47.128;15.422;2024-02-26T05:04:01;0.60;99.90
23869;DHT22;12115;47.128;15.422;2024-02-26T05:06:28;0.70;99.90
23869;DHT22;12115;47.128;15.422;2024-02-26T05:08:55;0.60;99.90
23869;DHT22;12115;47.128;15.422;2024-02-26T05:11:23;0.60;99.90
23869;DHT22;12115;47.128;15.422;2024-02-26T05:13:50;0.60;99.90
23869;DHT22;12115;47.128;15.422;2024-02-26T05:16:17;0.60;99.90
23869;DHT22;12115;47.128;15.422;2024-02-26T05:18:44;0.70;99.90
23869;DHT22;12115;47.128;15.422;2024-02-26T05:21:11;0.60;99.90
23869;DHT22;12115;47.128;15.422;2024-02-26T05:23:38;0.60;99.90
23869;DHT22;12115;47.128;15.422;2024-02-26T05:26:06;0.60;99.90
23869;DHT22;12115;47.128;15.422;2024-02-26T05:28:34;0.50;99.90
23869;DHT22;12115;47.128;15.422;2024-02-26T05:31:01;0.50;99.90
23869;DHT22;12115;47.128;15.422;2024-02-26T05:33:30;0.50;99.90
23869;DHT22;12115;47.128;15.422;2024-02-26T05:35:57;0.40;99.90
23869;DHT22;12115;47.128;15.422;2024-02-26T05:38:31;0.50;99.90
23869;DHT22;12115;47.128;15.422;2024-02-26T05:40:58;0.50;99.90
23869;DHT22;12115;47.128;15.422;2024-02-26T05:43:26;0.50;99.90
23869;DHT22;12115;47.128;15.422;2024-02-26T05:45:53;0.50;99.90
23869;DHT22;12115;47.128;15.422;2024-02-26T05:48:21;0.40;99.90
23869;DHT22;12115;47.128;15.422;2024-02-26T05:50:48;0.50;99.90
23869;DHT22;12115;47.128;15.422;2024-02-26T05:53:16;0.40;99.90
23869;DHT22;12115;47.128;15.422;2024-02-26T05:55:43;0.40;99.90
23869;DHT22;12115;47.128;15.422;2024-02-26T05:58:10;0.30;99.90
23869;DHT22;12115;47.128;15.422;2024-02-26T06:00:37;0.30;99.90
23869;DHT22;12115;47.128;15.422;2024-02-26T06:03:04;0.30;99.90
23869;DHT22;12115;47.128;15.422;2024-02-26T06:05:31;0.30;99.90
23869;DHT22;12115;47.128;15.422;2024-02-26T06:07:58;0.30;99.90
23869;DHT22;12115;47.128;15.422;2024-02-26T06:10:26;0.30;99.90
23869;DHT22;12115;47.128;15.422;2024-02-26T06:12:53;0.40;99.90
23869;DHT22;12115;47.128;15.422;2024-02-26T06:15:20;0.40;99.90
23869;DHT22;12115;47.128;15.422;2024-02-26T06:17:47;0.40;99.90
23869;DHT22;12115;47.128;15.422;2024-02-26T06:20:14;0.50;99.90
23869;DHT22;12115;47.128;15.422;2024-02-26T06:22:41;0.50;99.90
23869;DHT22;12115;47.128;15.422;2024-02-26T06:25:10;0.50;99.90
23869;DHT22;12115;47.128;15.422;2024-02-26T06:27:37;0.60;99.90
23869;DHT22;12115;47.128;15.422;2024-02-26T06:30:04;0.50;99.90
23869;DHT22;12115;47.128;15.422;2024-02-26T06:32:31;0.60;99.90
23869;DHT22;12115;47.128;15.422;2024-02-26T06:34:59;0.60;99.90
23869;DHT22;12115;47.128;15.422;2024-02-26T06:37:26;0.70;99.90
23869;DHT22;12115;47.128;15.422;2024-02-26T06:39:53;0.80;99.90
23869;DHT22;12115;47.128;15.422;2024-02-26T06:42:20;0.80;99.90
23869;DHT22;12115;47.128;15.422;2024-02-26T06:44:47;0.80;99.90
23869;DHT22;12115;47.128;15.422;2024-02-26T06:47:14;0.80;99.90
23869;DHT22;12115;47.128;15.422;2024-02-26T06:49:42;0.90;99.90
23869;DHT22;12115;47.128;15.422;2024-02-26T06:52:10;1.00;99.90
23869;DHT22;12115;47.128;15.422;2024-02-26T06:54:37;1.00;99.90
23869;DHT22;12115;47.128;15.422;2024-02-26T06:57:05;1.10;99.90
23869;DHT22;12115;47.128;15.422;2024-02-26T06:59:32;1.10;99.90
23869;DHT22;12115;47.128;15.422;2024-02-26T07:01:59;1.10;99.90
23869;DHT22;12115;47.128;15.422;2024-02-26T07:04:26;1.30;99.90
23869;DHT22;12115;47.128;15.422;2024-02-26T07:06:53;1.30;99.90
23869;DHT22;12115;47.128;15.422;2024-02-26T07:09:21;1.40;99.90
23869;DHT22;12115;47.128;15.422;2024-02-26T07:11:49;1.50;99.90
23869;DHT22;12115;47.128;15.422;2024-02-26T07:14:16;1.60;99.90
23869;DHT22;12115;47.128;15.422;2024-02-26T07:16:43;1.70;99.90
23869;DHT22;12115;47.128;15.422;2024-02-26T07:19:10;1.80;99.90
23869;DHT22;12115;47.128;15.422;2024-02-26T07:21:37;1.90;99.90
23869;DHT22;12115;47.128;15.422;2024-02-26T07:24:06;1.90;99.90
23869;DHT22;12115;47.128;15.422;2024-02-26T07:26:33;2.10;99.90
23869;DHT22;12115;47.128;15.422;2024-02-26T07:29:00;2.20;99.90
23869;DHT22;12115;47.128;15.422;2024-02-26T07:31:28;2.40;99.90
23869;DHT22;12115;47.128;15.422;2024-02-26T07:33:55;2.60;99.90
23869;DHT22;12115;47.128;15.422;2024-02-26T07:36:22;2.80;99.90
23869;DHT22;12115;47.128;15.422;2024-02-26T07:38:49;3.00;99.90
23869;DHT22;12115;47.128;15.422;2024-02-26T07:41:16;3.30;99.90
23869;DHT22;12115;47.128;15.422;2024-02-26T07:43:44;3.60;99.90
23869;DHT22;12115;47.128;15.422;2024-02-26T07:46:12;3.90;99.90
23869;DHT22;12115;47.128;15.422;2024-02-26T07:48:39;4.30;99.90
23869;DHT22;12115;47.128;15.422;2024-02-26T07:51:08;4.70;99.90
23869;DHT22;12115;47.128;15.422;2024-02-26T07:53:35;5.10;99.90
23869;DHT22;12115;47.128;15.422;2024-02-26T07:56:03;5.60;99.90
23869;DHT22;12115;47.128;15.422;2024-02-26T07:58:31;6.10;99.90
23869;DHT22;12115;47.128;15.422;2024-02-26T08:00:59;6.60;99.90
23869;DHT22;12115;47.128;15.422;2024-02-26T08:03:26;7.10;99.90
23869;DHT22;12115;47.128;15.422;2024-02-26T08:05:54;7.40;99.90
23869;DHT22;12115;47.128;15.422;2024-02-26T08:08:22;7.70;99.90
23869;DHT22;12115;47.128;15.422;2024-02-26T08:10:49;7.80;99.90
23869;DHT22;12115;47.128;15.422;2024-02-26T08:13:16;8.30;99.90
23869;DHT22;12115;47.128;15.422;2024-02-26T08:15:43;8.60;99.90
23869;DHT22;12115;47.128;15.422;2024-02-26T08:18:11;8.90;99.90
23869;DHT22;12115;47.128;15.422;2024-02-26T08:20:38;9.30;99.90
23869;DHT22;12115;47.128;15.422;2024-02-26T08:23:05;9.60;99.90
23869;DHT22;12115;47.128;15.422;2024-02-26T08:25:32;9.70;99.90
23869;DHT22;12115;47.128;15.422;2024-02-26T08:27:59;9.90;99.90
23869;DHT22;12115;47.128;15.422;2024-02-26T08:30:27;10.50;99.90
23869;DHT22;12115;47.128;15.422;2024-02-26T08:32:54;11.00;99.90
23869;DHT22;12115;47.128;15.422;2024-02-26T08:35:21;11.40;99.90
23869;DHT22;12115;47.128;15.422;2024-02-26T08:37:48;11.60;99.90
23869;DHT22;12115;47.128;15.422;2024-02-26T08:40:16;11.30;99.90
23869;DHT22;12115;47.128;15.422;2024-02-26T08:42:43;10.90;99.90
23869;DHT22;12115;47.128;15.422;2024-02-26T08:45:11;11.20;99.90
23869;DHT22;12115;47.128;15.422;2024-02-26T08:47:39;11.70;99.90
23869;DHT22;12115;47.128;15.422;2024-02-26T08:50:07;11.90;99.90
23869;DHT22;12115;47.128;15.422;2024-02-26T08:52:36;12.10;99.90
23869;DHT22;12115;47.128;15.422;2024-02-26T08:55:04;12.40;99.90
23869;DHT22;12115;47.128;15.422;2024-02-26T08:57:31;12.40;99.90
23869;DHT22;12115;47.128;15.422;2024-02-26T09:00:04;12.10;99.90
23869;DHT22;12115;47.128;15.422;2024-02-26T09:02:32;12.20;99.90
23869;DHT22;12115;47.128;15.422;2024-02-26T09:05:00;12.50;99.90
23869;DHT22;12115;47.128;15.422;2024-02-26T09:07:27;13.20;99.90
23869;DHT22;12115;47.128;15.422;2024-02-26T09:09:54;13.50;99.90
23869;DHT22;12115;47.128;15.422;2024-02-26T09:12:21;13.70;99.90
23869;DHT22;12115;47.128;15.422;2024-02-26T09:14:50;13.80;99.90
23869;DHT22;12115;47.128;15.422;2024-02-26T09:17:17;13.90;99.90
23869;DHT22;12115;47.128;15.422;2024-02-26T09:19:44;13.90;99.90
23869;DHT22;12115;47.128;15.422;2024-02-26T09:22:11;13.90;99.60
23869;DHT22;12115;47.128;15.422;2024-02-26T09:24:42;13.60;99.90
23869;DHT22;12115;47.128;15.422;2024-02-26T09:27:09;13.70;99.90
23869;DHT22;12115;47.128;15.422;2024-02-26T09:29:36;14.00;99.90
23869;DHT22;12115;47.128;15.422;2024-02-26T09:32:04;14.10;99.90
23869;DHT22;12115;47.128;15.422;2024-02-26T09:34:31;13.90;99.90
23869;DHT22;12115;47.128;15.422;2024-02-26T09:36:58;13.90;99.90
23869;DHT22;12115;47.128;15.422;2024-02-26T09:39:38;14.30;99.90
23869;DHT22;12115;47.128;15.422;2024-02-26T09:42:05;14.60;99.90
23869;DHT22;12115;47.128;15.422;2024-02-26T09:44:38;14.80;99.30
23869;DHT22;12115;47.128;15.422;2024-02-26T09:47:10;14.60;99.10
23869;DHT22;12115;47.128;15.422;2024-02-26T09:49:38;14.30;98.90
23869;DHT22;12115;47.128;15.422;2024-02-26T09:52:06;14.00;97.80
23869;DHT22;12115;47.128;15.422;2024-02-26T09:54:35;13.70;99.60
23869;DHT22;12115;47.128;15.422;2024-02-26T09:57:03;13.80;99.50
23869;DHT22;12115;47.128;15.422;2024-02-26T09:59:39;13.70;98.60
23869;DHT22;12115;47.128;15.422;2024-02-26T10:02:13;13.90;99.50
23869;DHT22;12115;47.128;15.422;2024-02-26T10:04:41;14.30;98.60
23869;DHT22;12115;47.128;15.422;2024-02-26T10:07:15;14.70;98.50
23869;DHT22;12115;47.128;15.422;2024-02-26T10:09:43;15.10;98.10
23869;DHT22;12115;47.128;15.422;2024-02-26T10:12:11;15.00;96.50
23869;DHT22;12115;47.128;15.422;2024-02-26T10:14:39;15.20;97.30
23869;DHT22;12115;47.128;15.422;2024-02-26T10:17:10;15.60;96.80
23869;DHT22;12115;47.128;15.422;2024-02-26T10:19:38;16.10;96.70
23869;DHT22;12115;47.128;15.422;2024-02-26T10:22:24;16.20;96.20
23869;DHT22;12115;47.128;15.422;2024-02-26T10:24:54;16.40;94.60
23869;DHT22;12115;47.128;15.422;2024-02-26T10:27:21;16.40;94.10
23869;DHT22;12115;47.128;15.422;2024-02-26T10:29:48;16.30;94.70
23869;DHT22;12115;47.128;15.422;2024-02-26T10:32:15;16.10;93.70
23869;DHT22;12115;47.128;15.422;2024-02-26T10:34:43;15.80;94.40
23869;DHT22;12115;47.128;15.422;2024-02-26T10:37:11;15.90;94.60
23869;DHT22;12115;47.128;15.422;2024-02-26T10:39:38;15.80;94.10
23869;DHT22;12115;47.128;15.422;2024-02-26T10:42:12;15.60;93.50
23869;DHT22;12115;47.128;15.422;2024-02-26T10:44:40;15.70;93.30
23869;DHT22;12115;47.128;15.422;2024-02-26T10:47:08;15.70;93.10
23869;DHT22;12115;47.128;15.422;2024-02-26T10:49:35;15.50;93.10
23869;DHT22;12115;47.128;15.422;2024-02-26T10:52:04;15.40;94.00
23869;DHT22;12115;47.128;15.422;2024-02-26T10:54:34;15.40;93.90
23869;DHT22;12115;47.128;15.422;2024-02-26T10:57:04;14.90;94.10
23869;DHT22;12115;47.128;15.422;2024-02-26T10:59:32;15.00;93.50
23869;DHT22;12115;47.128;15.422;2024-02-26T11:02:00;15.10;92.50
23869;DHT22;12115;47.128;15.422;2024-02-26T11:04:28;15.10;92.50
23869;DHT22;12115;47.128;15.422;2024-02-26T11:06:57;15.20;93.20
23869;DHT22;12115;47.128;15.422;2024-02-26T11:09:25;14.90;92.50
23869;DHT22;12115;47.128;15.422;2024-02-26T11:11:53;14.70;92.70
23869;DHT22;12115;47.128;15.422;2024-02-26T11:14:23;14.60;92.80
23869;DHT22;12115;47.128;15.422;2024-02-26T11:16:54;14.50;92.70
23869;DHT22;12115;47.128;15.422;2024-02-26T11:19:24;14.60;92.70
23869;DHT22;12115;47.128;15.422;2024-02-26T11:21:51;14.50;91.80
23869;DHT22;12115;47.128;15.422;2024-02-26T11:24:19;14.50;92.60
23869;DHT22;12115;47.128;15.422;2024-02-26T11:26:53;14.50;92.70
23869;DHT22;12115;47.128;15.422;2024-02-26T11:29:34;14.30;92.10
23869;DHT22;12115;47.128;15.422;2024-02-26T11:32:03;14.00;92.00
23869;DHT22;12115;47.128;15.422;2024-02-26T11:34:32;14.10;92.40
23869;DHT22;12115;47.128;15.422;2024-02-26T11:37:11;14.00;92.40
23869;DHT22;12115;47.128;15.422;2024-02-26T11:39:42;14.00;92.40
23869;DHT22;12115;47.128;15.422;2024-02-26T11:42:13;14.00;92.60
23869;DHT22;12115;47.128;15.422;2024-02-26T11:44:40;14.10;92.60
23869;DHT22;12115;47.128;15.422;2024-02-26T11:47:12;14.00;92.30
23869;DHT22;12115;47.128;15.422;2024-02-26T11:49:40;14.20;92.40
23869;DHT22;12115;47.128;15.422;2024-02-26T11:52:08;14.00;92.40
23869;DHT22;12115;47.128;15.422;2024-02-26T11:54:54;13.70;92.10
23869;DHT22;12115;47.128;15.422;2024-02-26T11:57:26;13.40;91.50
23869;DHT22;12115;47.128;15.422;2024-02-26T12:00:12;13.40;92.30
23869;DHT22;12115;47.128;15.422;2024-02-26T12:07:49;13.40;92.60
23869;DHT22;12115;47.128;15.422;2024-02-26T12:10:28;13.20;92.30
23869;DHT22;12115;47.128;15.422;2024-02-26T12:13:05;12.90;92.50
23869;DHT22;12115;47.128;15.422;2024-02-26T12:15:38;12.90;93.00
23869;DHT22;12115;47.128;15.422;2024-02-26T12:18:07;12.80;93.00
23869;DHT22;12115;47.128;15.422;2024-02-26T12:20:35;12.70;93.10
23869;DHT22;12115;47.128;15.422;2024-02-26T12:23:03;12.80;93.20
23869;DHT22;12115;47.128;15.422;2024-02-26T12:25:34;12.90;93.60
23869;DHT22;12115;47.128;15.422;2024-02-26T12:28:01;12.80;93.30
23869;DHT22;12115;47.128;15.422;2024-02-26T12:30:30;12.80;94.00
23869;DHT22;12115;47.128;15.422;2024-02-26T12:33:00;12.80;94.30
23869;DHT22;12115;47.128;15.422;2024-02-26T12:35:28;12.60;94.10
23869;DHT22;12115;47.128;15.422;2024-02-26T12:37:58;12.50;94.40
23869;DHT22;12115;47.128;15.422;2024-02-26T12:40:26;12.60;94.40
23869;DHT22;12115;47.128;15.422;2024-02-26T12:42:53;12.60;94.30
23869;DHT22;12115;47.128;15.422;2024-02-26T12:45:22;12.60;94.60
23869;DHT22;12115;47.128;15.422;2024-02-26T12:47:49;12.70;94.80
23869;DHT22;12115;47.128;15.422;2024-02-26T12:50:17;12.70;94.50
23869;DHT22;12115;47.128;15.422;2024-02-26T12:52:47;12.80;94.50
23869;DHT22;12115;47.128;15.422;2024-02-26T12:55:16;12.80;94.30
23869;DHT22;12115;47.128;15.422;2024-02-26T12:57:45;12.70;94.90
23869;DHT22;12115;47.128;15.422;2024-02-26T13:00:16;12.80;94.70
23869;DHT22;12115;47.128;15.422;2024-02-26T13:02:44;12.90;94.40
23869;DHT22;12115;47.128;15.422;2024-02-26T13:05:13;12.90;94.10
23869;DHT22;12115;47.128;15.422;2024-02-26T13:07:43;12.90;94.20
23869;DHT22;12115;47.128;15.422;2024-02-26T13:10:10;13.00;94.40
23869;DHT22;12115;47.128;15.422;2024-02-26T13:12:45;13.00;94.60
23869;DHT22;12115;47.128;15.422;2024-02-26T13:15:20;13.00;94.40
23869;DHT22;12115;47.128;15.422;2024-02-26T13:17:49;13.00;93.80
23869;DHT22;12115;47.128;15.422;2024-02-26T13:20:29;13.00;94.10
23869;DHT22;12115;47.128;15.422;2024-02-26T13:23:02;13.00;93.90
23869;DHT22;12115;47.128;15.422;2024-02-26T13:25:30;12.90;93.80
23869;DHT22;12115;47.128;15.422;2024-02-26T13:28:15;12.90;94.20
23869;DHT22;12115;47.128;15.422;2024-02-26T13:30:57;13.00;94.50
23869;DHT22;12115;47.128;15.422;2024-02-26T13:33:26;13.00;93.90
23869;DHT22;12115;47.128;15.422;2024-02-26T13:35:58;13.00;94.00
23869;DHT22;12115;47.128;15.422;2024-02-26T13:38:28;13.00;94.40
23869;DHT22;12115;47.128;15.422;2024-02-26T13:40:59;12.90;94.00
23869;DHT22;12115;47.128;15.422;2024-02-26T13:43:29;12.90;94.30
23869;DHT22;12115;47.128;15.422;2024-02-26T13:45:58;12.90;94.20
23869;DHT22;12115;47.128;15.422;2024-02-26T13:48:25;12.90;94.10
23869;DHT22;12115;47.128;15.422;2024-02-26T13:50:53;12.90;94.70
23869;DHT22;12115;47.128;15.422;2024-02-26T13:53:20;13.00;94.90
23869;DHT22;12115;47.128;15.422;2024-02-26T13:55:50;13.00;94.30
23869;DHT22;12115;47.128;15.422;2024-02-26T13:58:18;13.00;93.80
23869;DHT22;12115;47.128;15.422;2024-02-26T14:00:49;13.00;94.30
23869;DHT22;12115;47.128;15.422;2024-02-26T14:03:16;13.10;94.50
23869;DHT22;12115;47.128;15.422;2024-02-26T14:05:44;13.10;94.50
23869;DHT22;12115;47.128;15.422;2024-02-26T14:08:14;13.10;93.70
23869;DHT22;12115;47.128;15.422;2024-02-26T14:10:42;13.00;94.10
23869;DHT22;12115;47.128;15.422;2024-02-26T14:13:09;13.10;94.00
23869;DHT22;12115;47.128;15.422;2024-02-26T14:15:36;13.20;93.80
23869;DHT22;12115;47.128;15.422;2024-02-26T14:18:05;13.10;93.90
23869;DHT22;12115;47.128;15.422;2024-02-26T14:20:35;13.10;94.10
23869;DHT22;12115;47.128;15.422;2024-02-26T14:23:02;13.20;94.00
23869;DHT22;12115;47.128;15.422;2024-02-26T14:25:30;13.10;93.80
23869;DHT22;12115;47.128;15.422;2024-02-26T14:27:57;13.10;93.90
23869;DHT22;12115;47.128;15.422;2024-02-26T14:30:26;13.10;94.00
23869;DHT22;12115;47.128;15.422;2024-02-26T14:32:54;13.10;93.80
23869;DHT22;12115;47.128;15.422;2024-02-26T14:35:22;13.20;94.00
23869;DHT22;12115;47.128;15.422;2024-02-26T14:37:49;13.20;93.70
23869;DHT22;12115;47.128;15.422;2024-02-26T14:40:17;13.10;93.40
23869;DHT22;12115;47.128;15.422;2024-02-26T14:42:44;13.10;93.30
23869;DHT22;12115;47.128;15.422;2024-02-26T14:45:12;13.20;93.60
23869;DHT22;12115;47.128;15.422;2024-02-26T14:47:39;13.20;93.60
23869;DHT22;12115;47.128;15.422;2024-02-26T14:50:07;13.20;93.80
23869;DHT22;12115;47.128;15.422;2024-02-26T14:52:34;13.20;93.60
23869;DHT22;12115;47.128;15.422;2024-02-26T14:55:02;13.10;93.30
23869;DHT22;12115;47.128;15.422;2024-02-26T14:57:29;13.10;93.00
23869;DHT22;12115;47.128;15.422;2024-02-26T14:59:56;13.10;93.20
23869;DHT22;12115;47.128;15.422;2024-02-26T15:02:23;13.10;93.30
23869;DHT22;12115;47.128;15.422;2024-02-26T15:04:50;13.10;93.10
23869;DHT22;12115;47.128;15.422;2024-02-26T15:07:18;13.00;93.20
23869;DHT22;12115;47.128;15.422;2024-02-26T15:09:47;13.10;92.60
23869;DHT22;12115;47.128;15.422;2024-02-26T15:12:14;13.10;92.90
23869;DHT22;12115;47.128;15.422;2024-02-26T15:14:42;13.10;93.20
23869;DHT22;12115;47.128;15.422;2024-02-26T15:17:09;13.00;93.20
23869;DHT22;12115;47.128;15.422;2024-02-26T15:19:40;13.00;93.80
23869;DHT22;12115;47.128;15.422;2024-02-26T15:22:07;13.00;93.80
23869;DHT22;12115;47.128;15.422;2024-02-26T15:24:34;12.90;94.30
23869;DHT22;12115;47.128;15.422;2024-02-26T15:27:02;12.90;94.30
23869;DHT22;12115;47.128;15.422;2024-02-26T15:29:32;12.90;94.30
23869;DHT22;12115;47.128;15.422;2024-02-26T15:32:04;12.90;94.50
23869;DHT22;12115;47.128;15.422;2024-02-26T15:34:34;12.90;95.40
23869;DHT22;12115;47.128;15.422;2024-02-26T15:37:02;12.80;95.30